createdAt,value
2022-11-14T09:18:04.289Z,58.23
2022-11-14T09:20:35.109Z,56.12
2022-11-14T09:23:04.598Z,58.73
2022-11-14T09:25:31.375Z,58.70
2022-11-14T09:27:57.962Z,56.47
2022-11-14T09:30:24.784Z,58.43
2022-11-14T09:32:51.318Z,56.65
2022-11-14T09:35:18.095Z,58.47
2022-11-14T09:37:44.559Z,56.69
2022-11-14T09:40:13.450Z,58.50
2022-11-14T09:43:35.120Z,57.44
2022-11-14T09:46:02.823Z,58.89
2022-11-14T09:48:31.986Z,58.76
2022-11-14T09:51:15.312Z,58.16
2022-11-14T09:53:50.442Z,57.99
2022-11-14T09:56:22.148Z,58.28
2022-11-14T09:58:48.620Z,58.19
2022-11-14T10:01:33.850Z,57.87
2022-11-14T10:04:15.919Z,58.00
2022-11-14T10:06:51.578Z,58.21
2022-11-14T10:09:18.191Z,58.17
2022-11-14T10:11:55.227Z,58.10
2022-11-14T10:14:41.368Z,58.25
2022-11-14T10:17:42.086Z,57.83
2022-11-14T10:20:47.109Z,58.43
2022-11-14T10:23:16.230Z,58.33
2022-11-14T10:25:54.100Z,58.38
2022-11-14T10:28:39.975Z,57.87
2022-11-14T10:31:43.478Z,57.40
2022-11-14T10:34:29.339Z,57.37
2022-11-14T10:37:15.960Z,57.86
2022-11-14T10:39:52.555Z,58.10
2022-11-14T10:42:36.501Z,57.56
2022-11-14T10:45:09.068Z,57.94
2022-11-14T10:47:44.002Z,57.52
2022-11-14T10:50:43.125Z,57.43
2022-11-14T10:53:44.313Z,57.38
2022-11-14T10:56:13.044Z,58.04
2022-11-14T10:58:48.476Z,58.29
2022-11-14T11:01:37.969Z,57.47
2022-11-14T11:04:14.644Z,57.14
2022-11-14T11:06:41.230Z,56.43
2022-11-14T11:09:27.831Z,56.05
2022-11-14T11:11:59.712Z,56.01
2022-11-14T11:14:26.227Z,56.00
2022-11-14T11:17:15.457Z,55.79
2022-11-14T11:19:42.688Z,54.67
2022-11-14T11:22:29.380Z,54.83
2022-11-14T11:24:56.284Z,54.45
2022-11-14T11:27:28.176Z,53.94
2022-11-14T11:30:18.546Z,54.12
2022-11-14T11:32:45.177Z,53.29
2022-11-14T11:35:12.850Z,55.05
2022-11-14T11:37:46.658Z,53.00
2022-11-14T11:40:20.610Z,52.56
2022-11-14T11:45:46.262Z,51.84
2022-11-14T11:48:19.193Z,51.74
2022-11-14T11:50:45.884Z,50.58
2022-11-14T11:53:35.287Z,52.99
2022-11-14T11:56:09.618Z,51.01
2022-11-14T11:59:04.145Z,50.38
2022-11-14T12:01:30.726Z,49.55
2022-11-14T12:03:57.217Z,52.28
2022-11-14T12:06:27.295Z,49.21
2022-11-14T12:09:19.843Z,50.42
2022-11-14T12:11:54.724Z,49.46
2022-11-14T12:14:42.992Z,49.86
2022-11-14T12:17:44.819Z,50.32
2022-11-14T12:20:28.569Z,48.24
2022-11-14T12:23:08.010Z,49.09
2022-11-14T12:26:00.687Z,49.47
2022-11-14T12:28:46.007Z,49.15
2022-11-14T12:31:17.039Z,48.01
2022-11-14T12:33:57.407Z,48.27
2022-11-14T12:36:30.968Z,47.47
2022-11-14T12:38:58.875Z,47.22
2022-11-14T12:41:28.472Z,47.04
2022-11-14T12:44:27.124Z,48.75
2022-11-14T12:47:14.093Z,48.78
2022-11-14T12:49:56.620Z,47.63
2022-11-14T12:52:45.588Z,47.99
2022-11-14T12:55:24.069Z,47.76
2022-11-14T12:58:06.761Z,47.65
2022-11-14T13:00:45.349Z,46.95
2022-11-14T13:03:37.397Z,46.88
2022-11-14T13:06:38.350Z,46.74
2022-11-14T13:09:32.433Z,46.98
2022-11-14T13:12:17.365Z,44.96
2022-11-14T13:15:14.362Z,46.32
2022-11-14T13:17:59.855Z,45.56
2022-11-14T13:20:44.824Z,45.53
2022-11-14T13:23:26.378Z,46.75
2022-11-14T13:26:11.227Z,46.82
2022-11-14T13:28:37.644Z,45.45
2022-11-14T13:31:16.198Z,46.85
2022-11-14T13:33:45.654Z,46.25
2022-11-14T13:36:36.617Z,46.46
2022-11-14T13:39:15.938Z,46.30
2022-11-14T13:42:01.108Z,47.50
2022-11-14T13:44:33.651Z,46.32
2022-11-14T13:47:22.149Z,46.38
2022-11-14T13:50:08.948Z,46.94
2022-11-14T13:52:41.973Z,46.14
2022-11-14T13:55:17.863Z,45.73
2022-11-14T13:58:07.796Z,45.64
2022-11-14T14:00:53.224Z,46.68
2022-11-14T14:03:54.335Z,46.52
2022-11-14T14:06:39.609Z,46.41
2022-11-14T14:09:34.198Z,45.29
2022-11-14T14:12:08.452Z,45.12
2022-11-14T14:14:59.175Z,45.66
2022-11-14T14:17:40.700Z,44.70
2022-11-14T14:20:21.763Z,45.57
2022-11-14T14:23:03.242Z,45.26
2022-11-14T14:25:47.323Z,45.42
2022-11-14T14:28:53.359Z,45.75
2022-11-14T14:31:20.284Z,44.52
2022-11-14T14:33:50.659Z,44.87
2022-11-14T14:36:23.611Z,45.19
2022-11-14T14:38:51.019Z,44.99
2022-11-14T14:41:19.999Z,45.31
2022-11-14T14:43:53.728Z,45.62
2022-11-14T14:46:30.999Z,46.04
2022-11-14T14:49:00.659Z,45.71
2022-11-14T14:51:35.936Z,46.19
2022-11-14T14:54:02.495Z,45.29
2022-11-14T14:56:29.018Z,46.56
2022-11-14T14:58:55.927Z,45.46
2022-11-14T15:01:29.133Z,45.77
2022-11-14T15:04:01.159Z,46.31
2022-11-14T15:06:33.987Z,46.33
2022-11-14T15:09:09.582Z,46.30
2022-11-14T15:11:39.923Z,46.21
2022-11-14T15:14:07.229Z,46.46
2022-11-14T15:16:34.045Z,46.76
2022-11-14T15:19:01.208Z,46.79
2022-11-14T15:21:29.773Z,46.92
2022-11-14T15:24:00.610Z,47.18
2022-11-14T15:26:29.339Z,47.42
2022-11-14T15:29:22.424Z,47.65
2022-11-14T15:31:52.940Z,47.88
2022-11-14T15:34:34.239Z,47.79
2022-11-14T15:37:08.580Z,48.16
2022-11-14T15:39:35.084Z,48.48
2022-11-14T15:42:18.524Z,48.59
2022-11-14T15:44:46.915Z,48.76
2022-11-14T15:47:28.593Z,48.84
2022-11-14T15:50:21.056Z,49.48
2022-11-14T15:52:50.727Z,49.24
2022-11-14T15:55:20.005Z,49.46
2022-11-14T15:57:51.965Z,49.78
2022-11-14T16:00:33.027Z,49.74
2022-11-14T16:02:59.550Z,50.15
2022-11-14T16:05:30.326Z,50.14
2022-11-14T16:07:57.325Z,50.21
2022-11-14T16:10:26.252Z,50.57
2022-11-14T16:12:53.031Z,50.48
2022-11-14T16:15:21.052Z,51.05
2022-11-14T16:17:49.717Z,50.85
2022-11-14T16:20:22.717Z,50.99
2022-11-14T16:22:50.020Z,51.21
2022-11-14T16:25:23.528Z,51.32
2022-11-14T16:27:50.018Z,51.48
2022-11-14T16:30:19.021Z,51.62
2022-11-14T16:32:47.421Z,52.35
2022-11-14T16:35:14.596Z,52.06
2022-11-14T16:37:41.530Z,52.10
2022-11-14T16:40:14.253Z,51.87
2022-11-14T16:42:40.874Z,52.01
2022-11-14T16:45:07.934Z,52.13
2022-11-14T16:47:34.462Z,52.30
2022-11-14T16:50:01.533Z,52.17
2022-11-14T16:52:27.967Z,52.07
2022-11-14T16:54:54.478Z,52.25
2022-11-14T16:57:20.976Z,52.34
2022-11-14T16:59:48.054Z,52.24
2022-11-14T17:02:16.220Z,52.66
2022-11-14T17:04:43.098Z,52.51
2022-11-14T17:07:10.162Z,52.53
2022-11-14T17:09:36.675Z,52.72
2022-11-14T17:12:03.375Z,52.47
2022-11-14T17:14:30.085Z,50.84
2022-11-14T17:16:56.680Z,52.05
2022-11-14T17:19:23.223Z,52.52
2022-11-14T17:21:50.479Z,52.54
2022-11-14T17:24:16.928Z,52.50
2022-11-14T17:26:43.407Z,52.67
2022-11-14T17:29:11.950Z,52.53
2022-11-14T17:31:43.204Z,52.81
2022-11-14T17:34:12.411Z,52.59
2022-11-14T17:36:39.074Z,52.28
2022-11-14T17:39:05.842Z,52.42
2022-11-14T17:41:32.390Z,51.08
2022-11-14T17:44:02.548Z,52.88
2022-11-14T17:46:30.351Z,52.92
2022-11-14T17:48:58.707Z,52.91
2022-11-14T17:51:28.272Z,53.57
2022-11-14T17:53:55.120Z,53.41
2022-11-14T17:56:24.620Z,53.78
2022-11-14T17:58:52.996Z,53.51
2022-11-14T18:01:22.364Z,53.48
2022-11-14T18:03:49.386Z,53.49
2022-11-14T18:06:20.920Z,52.79
2022-11-14T18:08:48.275Z,52.52
2022-11-14T18:11:17.043Z,52.58
2022-11-14T18:13:43.839Z,52.54
2022-11-14T18:16:12.002Z,51.71
2022-11-14T18:18:39.223Z,52.62
2022-11-14T18:21:12.291Z,52.56
2022-11-14T18:23:38.821Z,52.85
2022-11-14T18:26:12.737Z,53.14
2022-11-14T18:28:39.980Z,53.27
2022-11-14T18:31:10.186Z,53.49
2022-11-14T18:33:41.255Z,53.10
2022-11-14T18:36:12.237Z,53.49
2022-11-14T18:38:39.290Z,53.62
2022-11-14T18:41:12.860Z,53.63
2022-11-14T18:43:39.688Z,53.90
2022-11-14T18:46:12.196Z,53.55
2022-11-14T18:48:40.093Z,53.58
2022-11-14T18:51:12.513Z,53.40
2022-11-14T18:53:39.709Z,54.19
2022-11-14T18:56:11.581Z,54.01
2022-11-14T18:58:41.418Z,54.18
2022-11-14T19:01:24.164Z,54.12
2022-11-14T19:03:51.201Z,54.33
2022-11-14T19:06:20.185Z,54.16
2022-11-14T19:08:46.942Z,54.51
2022-11-14T19:11:35.376Z,52.33
2022-11-14T19:14:03.953Z,53.45
2022-11-14T19:16:31.766Z,53.57
2022-11-14T19:18:59.358Z,53.72
2022-11-14T19:21:26.835Z,53.60
2022-11-14T19:23:57.237Z,54.05
2022-11-14T19:26:23.716Z,54.43
2022-11-14T19:28:53.455Z,54.36
2022-11-14T19:31:23.098Z,54.44
2022-11-14T19:33:49.628Z,54.75
2022-11-14T19:36:44.932Z,54.50
2022-11-14T19:39:08.042Z,55.26
2022-11-14T19:41:34.512Z,55.10
2022-11-14T19:44:02.272Z,54.43
2022-11-14T19:46:29.213Z,54.61
2022-11-14T19:49:00.418Z,54.63
2022-11-14T19:51:28.772Z,54.83
2022-11-14T19:53:57.460Z,54.75
2022-11-14T19:56:24.530Z,55.16
2022-11-14T19:58:57.370Z,54.85
2022-11-14T20:01:26.456Z,55.03
2022-11-14T20:03:55.608Z,55.37
2022-11-14T20:06:27.616Z,55.17
2022-11-14T20:08:55.321Z,55.75
2022-11-14T20:11:23.630Z,56.30
2022-11-14T20:13:50.138Z,55.99
2022-11-14T20:16:22.575Z,55.72
2022-11-14T20:18:53.243Z,56.12
2022-11-14T20:21:24.349Z,56.07
2022-11-14T20:23:52.818Z,56.27
2022-11-14T20:26:19.879Z,56.02
2022-11-14T20:28:47.882Z,56.42
2022-11-14T20:31:20.403Z,56.39
2022-11-14T20:33:48.614Z,57.15
2022-11-14T20:36:20.837Z,57.31
2022-11-14T20:38:47.699Z,57.54
2022-11-14T20:41:14.866Z,57.58
2022-11-14T20:43:41.775Z,56.37
2022-11-14T20:46:13.300Z,56.62
2022-11-14T20:48:40.902Z,56.62
2022-11-14T20:51:11.562Z,56.83
2022-11-14T20:53:38.390Z,57.09
2022-11-14T20:56:04.851Z,54.96
2022-11-14T20:58:31.891Z,57.59
2022-11-14T21:00:59.362Z,57.95
2022-11-14T21:03:26.843Z,58.65
2022-11-14T21:05:54.928Z,59.52
2022-11-14T21:08:21.601Z,60.24
2022-11-14T21:10:50.071Z,60.45
2022-11-14T21:13:37.505Z,60.79
2022-11-14T21:16:06.567Z,60.63
2022-11-14T21:18:33.800Z,60.96
2022-11-14T21:21:07.319Z,60.51
2022-11-14T21:23:34.847Z,60.55
2022-11-14T21:26:07.268Z,60.01
2022-11-14T21:28:36.401Z,60.49
2022-11-14T21:31:15.032Z,59.88
2022-11-14T21:33:41.665Z,60.28
2022-11-14T21:36:30.091Z,60.52
2022-11-14T21:38:56.754Z,60.13
2022-11-14T21:41:26.327Z,60.05
2022-11-14T21:43:54.595Z,60.07
2022-11-14T21:46:21.751Z,60.36
2022-11-14T21:48:49.180Z,60.37
2022-11-14T21:51:16.968Z,60.39
2022-11-14T21:53:44.750Z,60.42
2022-11-14T21:56:15.632Z,59.91
2022-11-14T21:58:42.701Z,59.51
